Terminal Aerodrome Forecast
Issued by NWS

Home | Current Version | Previous Version | Graphics & Text | Print | Product List | Glossary On
Versions: 1 2 3 4 5 6 7 8 9 10 11 12 13
611
FTUS43 KTOP 202329
TAFMHK
TAF
KMHK 202329Z 2100/2124 35003KT P6SM SKC
      TEMPO 2106/2109 00000KT 6SM MIFG
     FM211400 27004KT P6SM SKC=

USA.gov is the U.S. government's official web portal to all federal, state and local government web resources and services.